Time;durP1;ratioP1;P1;durP2;ratioP2;P2;SDS_P1;SDS_P2;PMS_P1;PMS_P2;Temp;Humidity;BMP_temperature;BMP_pressure;BME280_temperature;BME280_humidity;BME280_pressure;Samples;Min_cycle;Max_cycle;Signal;HPM_P1;HPM_P2
2022/01/20 00:01:10;;;;;;;14.07;3.60;;;-6.60;99.90;;;;;;5097570;28;20209;-79
2022/01/20 00:03:37;;;;;;;13.83;3.87;;;-6.70;99.90;;;;;;5097040;28;20458;-76
2022/01/20 00:28:09;;;;;;;9.87;3.40;;;-7.00;99.90;;;;;;5096686;28;20499;-80
2022/01/20 00:30:43;;;;;;;18.87;4.13;;;-7.50;99.90;;;;;;5095836;28;20410;-82
2022/01/20 00:38:24;;;;;;;11.63;3.47;;;-7.10;99.90;;;;;;5096747;28;20196;-79
2022/01/20 00:40:51;;;;;;;10.27;3.30;;;-7.40;99.90;;;;;;5096513;28;20403;-80
2022/01/20 00:43:17;;;;;;;9.97;3.77;;;-7.10;99.90;;;;;;5096428;28;20419;-76
2022/01/20 00:45:43;;;;;;;15.00;3.47;;;-7.00;99.90;;;;;;5096704;28;20444;-80
2022/01/20 00:48:09;;;;;;;11.23;2.53;;;-7.10;99.90;;;;;;5096504;28;20404;-82
2022/01/20 00:50:35;;;;;;;12.93;3.40;;;-6.00;99.90;;;;;;5096622;28;20175;-81
2022/01/20 00:53:02;;;;;;;12.83;2.67;;;-7.30;99.90;;;;;;5096588;28;20280;-80
2022/01/20 00:55:28;;;;;;;4.13;2.23;;;-7.50;99.90;;;;;;5096030;28;20412;-79
2022/01/20 00:57:53;;;;;;;11.00;2.97;;;-7.40;99.90;;;;;;5096391;28;20473;-81
2022/01/20 01:00:19;;;;;;;9.20;2.27;;;-7.20;99.90;;;;;;5095371;28;20835;-82
2022/01/20 01:02:45;;;;;;;18.10;3.07;;;-5.90;99.90;;;;;;5096193;28;20180;-80
2022/01/20 01:05:12;;;;;;;12.83;2.60;;;-7.50;99.90;;;;;;5096338;28;20204;-79
2022/01/20 01:07:49;;;;;;;16.90;2.37;;;-7.20;99.90;;;;;;5096264;28;20475;-80
2022/01/20 01:10:21;;;;;;;8.57;2.57;;;-7.50;99.90;;;;;;5096103;28;20405;-80
2022/01/20 01:12:57;;;;;;;10.07;3.13;;;-7.10;99.90;;;;;;5096114;28;20780;-81
2022/01/20 01:15:29;;;;;;;10.87;3.03;;;-7.10;99.90;;;;;;5096201;28;20406;-78
2022/01/20 01:23:34;;;;;;;11.43;2.17;;;-7.50;99.90;;;;;;5095984;28;20526;-79
2022/01/20 01:26:04;;;;;;;9.17;2.83;;;-6.90;99.90;;;;;;5095756;28;20740;-76
2022/01/20 01:28:31;;;;;;;9.33;2.37;;;-6.80;99.90;;;;;;5094882;28;20408;-74
2022/01/20 01:33:33;;;;;;;14.90;3.67;;;-7.10;99.90;;;;;;5095907;28;20775;-81
2022/01/20 01:36:02;;;;;;;11.80;3.40;;;-5.20;99.90;;;;;;5096132;28;20416;-81
2022/01/20 01:38:36;;;;;;;12.13;3.93;;;-7.20;99.90;;;;;;5094466;28;20450;-76
2022/01/20 01:41:13;;;;;;;11.20;2.40;;;-6.80;99.90;;;;;;5095679;28;20405;-79
2022/01/20 01:43:43;;;;;;;11.23;2.73;;;-6.40;99.90;;;;;;5095608;28;20466;-82
2022/01/20 01:46:10;;;;;;;9.97;2.97;;;-6.30;99.90;;;;;;5095798;28;20400;-82
2022/01/20 01:48:35;;;;;;;10.83;3.03;;;-6.40;99.90;;;;;;5095742;28;20411;-82
2022/01/20 01:51:02;;;;;;;10.90;2.30;;;-5.90;99.90;;;;;;5095780;28;20480;-81
2022/01/20 01:53:28;;;;;;;19.57;5.07;;;-5.70;99.90;;;;;;5095578;28;20176;-82
2022/01/20 01:55:55;;;;;;;13.00;3.00;;;-5.80;99.90;;;;;;5095660;28;20441;-82
2022/01/20 01:58:20;;;;;;;13.87;3.53;;;-5.20;99.90;;;;;;5095835;28;20461;-82
2022/01/20 02:00:46;;;;;;;24.63;3.80;;;-5.70;99.90;;;;;;5095517;28;20403;-80
2022/01/20 02:03:14;;;;;;;13.60;2.67;;;-5.90;99.90;;;;;;5095772;28;20178;-80
2022/01/20 02:19:30;;;;;;;7.90;2.80;;;-5.00;99.90;;;;;;5083587;28;20923;-80
2022/01/20 02:22:06;;;;;;;16.93;3.10;;;-6.10;99.90;;;;;;5095641;28;20408;-79
2022/01/20 02:24:32;;;;;;;11.23;4.07;;;-6.40;99.90;;;;;;5095079;28;20206;-82
2022/01/20 02:26:58;;;;;;;8.80;2.40;;;-7.10;99.90;;;;;;5094375;28;20410;-78
2022/01/20 02:29:24;;;;;;;13.07;2.83;;;-6.80;99.90;;;;;;5095500;28;20403;-74
2022/01/20 02:31:58;;;;;;;12.93;3.00;;;-7.40;99.90;;;;;;5095225;28;20172;-77
2022/01/20 02:34:28;;;;;;;12.10;2.60;;;-7.30;99.90;;;;;;5095448;28;20255;-76
2022/01/20 02:36:54;;;;;;;16.00;4.20;;;-7.00;99.90;;;;;;5095585;28;20410;-78
2022/01/20 02:47:15;;;;;;;11.50;2.37;;;-5.40;99.90;;;;;;5099140;28;20823;-79
2022/01/20 02:49:40;;;;;;;7.03;2.33;;;-7.10;99.90;;;;;;5098942;28;20410;-77
2022/01/20 02:52:06;;;;;;;5.70;2.17;;;-7.00;99.90;;;;;;5098517;28;20730;-79
2022/01/20 02:54:33;;;;;;;7.40;4.07;;;-7.20;99.90;;;;;;5098840;28;20174;-76
2022/01/20 02:56:58;;;;;;;6.93;2.77;;;-7.50;99.90;;;;;;5098540;28;20413;-74
2022/01/20 02:59:24;;;;;;;6.67;2.07;;;-7.40;99.90;;;;;;5098796;28;20403;-74
2022/01/20 03:01:50;;;;;;;12.73;3.37;;;-7.00;99.90;;;;;;5098366;28;20597;-75
2022/01/20 03:04:16;;;;;;;9.37;3.07;;;-6.60;99.90;;;;;;5098538;28;20277;-74
2022/01/20 03:06:42;;;;;;;7.83;1.93;;;-6.80;99.90;;;;;;5098126;28;20163;-77
2022/01/20 03:09:08;;;;;;;8.97;2.90;;;-6.70;99.90;;;;;;5098808;28;20423;-75
2022/01/20 03:11:34;;;;;;;9.97;1.93;;;-6.80;99.90;;;;;;5098471;28;20175;-74
2022/01/20 03:14:00;;;;;;;11.43;3.80;;;-6.50;99.90;;;;;;5097519;28;20182;-75
2022/01/20 03:16:26;;;;;;;8.77;2.13;;;-6.40;99.90;;;;;;5098241;28;20181;-77
2022/01/20 03:18:52;;;;;;;11.63;4.40;;;-5.80;99.90;;;;;;5098359;28;20399;-75
2022/01/20 03:21:17;;;;;;;10.47;2.17;;;-6.00;99.90;;;;;;5097993;28;20183;-76
2022/01/20 03:23:43;;;;;;;6.60;1.67;;;-5.60;99.90;;;;;;5098264;28;20186;-75
2022/01/20 03:26:09;;;;;;;8.03;2.23;;;-5.40;99.90;;;;;;5098033;28;20596;-75
2022/01/20 03:28:35;;;;;;;5.30;4.27;;;-5.40;99.90;;;;;;5098227;28;20423;-78
2022/01/20 03:31:01;;;;;;;5.60;2.17;;;-4.50;99.90;;;;;;5097143;28;20184;-78
2022/01/20 03:33:27;;;;;;;9.37;3.67;;;-5.80;99.90;;;;;;5098191;28;20172;-77
2022/01/20 03:35:53;;;;;;;5.93;2.10;;;-5.70;99.90;;;;;;5096732;28;20173;-75
2022/01/20 03:38:19;;;;;;;6.87;2.43;;;-5.30;99.90;;;;;;5097714;28;20190;-76
2022/01/20 03:40:45;;;;;;;7.10;3.40;;;-5.60;99.90;;;;;;5097958;28;20461;-75
2022/01/20 03:43:11;;;;;;;16.73;2.40;;;-5.80;99.90;;;;;;5097647;28;20767;-80
2022/01/20 03:45:38;;;;;;;5.50;1.93;;;-6.00;99.90;;;;;;5097977;28;20513;-77
2022/01/20 03:48:10;;;;;;;7.03;1.97;;;-5.80;99.90;;;;;;5097673;28;20220;-79
2022/01/20 03:53:21;;;;;;;8.07;2.77;;;-6.10;99.90;;;;;;5097467;28;20402;-77
2022/01/20 03:55:47;;;;;;;3.97;2.50;;;-6.30;99.90;;;;;;5097689;28;20404;-76
2022/01/20 03:58:13;;;;;;;2.90;2.60;;;-6.60;99.90;;;;;;5097498;28;20162;-75
2022/01/20 04:00:39;;;;;;;10.37;2.03;;;-6.30;99.90;;;;;;5097708;28;20454;-80
2022/01/20 04:03:05;;;;;;;8.53;2.80;;;-6.20;99.90;;;;;;5097349;28;20481;-75
2022/01/20 04:05:31;;;;;;;7.13;3.47;;;-6.20;99.90;;;;;;5097200;28;20209;-78
2022/01/20 04:07:56;;;;;;;2.63;1.70;;;-6.00;99.90;;;;;;5096120;28;20175;-75
2022/01/20 04:10:22;;;;;;;6.57;3.63;;;-6.10;99.90;;;;;;5097418;28;20181;-78
2022/01/20 04:12:48;;;;;;;6.37;2.80;;;-6.30;99.90;;;;;;5097338;28;20172;-79
2022/01/20 04:15:16;;;;;;;5.80;2.27;;;-6.00;99.90;;;;;;5096127;28;20186;-76
2022/01/20 04:17:44;;;;;;;8.13;2.57;;;-6.30;99.90;;;;;;5097197;28;20182;-77
2022/01/20 04:20:10;;;;;;;3.60;1.83;;;-6.50;99.90;;;;;;5096999;28;20488;-76
2022/01/20 04:22:36;;;;;;;13.33;2.67;;;-6.10;99.90;;;;;;5097124;28;20406;-75
2022/01/20 04:25:04;;;;;;;6.83;2.13;;;-6.30;99.90;;;;;;5096941;28;20745;-75
2022/01/20 04:27:30;;;;;;;5.30;2.13;;;-6.10;99.90;;;;;;5096879;28;20170;-77
2022/01/20 04:29:56;;;;;;;7.23;4.13;;;-6.30;99.90;;;;;;5097092;28;20492;-75
2022/01/20 04:32:21;;;;;;;10.83;2.27;;;-6.70;99.90;;;;;;5096807;28;20903;-74
2022/01/20 04:34:47;;;;;;;6.97;2.20;;;-6.10;99.90;;;;;;5096841;28;20186;-79
2022/01/20 04:37:14;;;;;;;5.47;2.70;;;-5.80;99.90;;;;;;5095616;28;20182;-80
2022/01/20 04:39:46;;;;;;;7.53;2.43;;;-4.50;99.90;;;;;;5096782;28;20213;-80
2022/01/20 04:42:12;;;;;;;7.67;2.33;;;-5.90;99.90;;;;;;5095648;28;20507;-82
2022/01/20 04:44:44;;;;;;;6.77;3.83;;;-5.80;99.90;;;;;;5096438;28;20551;-80
2022/01/20 04:57:56;;;;;;;3.43;2.20;;;-5.80;99.90;;;;;;5096657;28;20405;-78
2022/01/20 05:00:22;;;;;;;4.30;2.17;;;-6.20;99.90;;;;;;5095988;28;20412;-80
2022/01/20 05:02:48;;;;;;;11.17;2.80;;;-5.90;99.90;;;;;;5096049;28;20582;-79
2022/01/20 05:05:14;;;;;;;9.57;2.70;;;-6.20;99.90;;;;;;5096396;28;20198;-78
2022/01/20 05:07:39;;;;;;;7.50;4.03;;;-7.10;99.90;;;;;;5096293;28;20216;-75
2022/01/20 05:10:08;;;;;;;9.47;3.73;;;-7.20;99.90;;;;;;5096290;28;20167;-74
2022/01/20 05:13:22;;;;;;;12.23;3.27;;;-7.60;99.90;;;;;;5096247;28;20163;-76
2022/01/20 05:15:24;;;;;;;5.97;3.23;;;-7.50;99.90;;;;;;5090291;28;20408;-74
2022/01/20 05:17:51;;;;;;;10.50;3.93;;;-7.30;99.90;;;;;;5095950;28;20714;-74
2022/01/20 05:20:17;;;;;;;7.40;2.73;;;-7.70;99.90;;;;;;5096099;28;20458;-75
2022/01/20 05:22:43;;;;;;;15.03;3.37;;;-7.30;99.90;;;;;;5096104;28;20403;-75
2022/01/20 05:25:09;;;;;;;8.03;2.57;;;-7.70;99.90;;;;;;5094834;28;20211;-75
2022/01/20 05:27:35;;;;;;;8.40;3.07;;;-6.70;99.90;;;;;;5095821;28;20167;-74
2022/01/20 05:30:00;;;;;;;12.90;2.53;;;-7.20;99.90;;;;;;5096023;28;20178;-76
2022/01/20 05:32:26;;;;;;;12.03;4.50;;;-7.10;99.90;;;;;;5095760;28;20223;-76
2022/01/20 05:34:52;;;;;;;7.20;2.93;;;-7.20;99.90;;;;;;5095918;28;20196;-74
2022/01/20 05:37:18;;;;;;;5.03;2.90;;;-6.60;99.90;;;;;;5095790;28;20826;-78
2022/01/20 05:39:44;;;;;;;9.33;2.37;;;-6.60;99.90;;;;;;5095752;28;20595;-73
2022/01/20 05:42:10;;;;;;;8.13;3.57;;;-6.30;99.90;;;;;;5095954;28;20957;-74
2022/01/20 05:44:36;;;;;;;11.67;3.20;;;-6.50;99.90;;;;;;5095624;28;20451;-75
2022/01/20 05:47:10;;;;;;;7.40;2.27;;;-6.30;99.90;;;;;;5094494;28;20182;-75
2022/01/20 05:49:36;;;;;;;7.53;2.73;;;-6.20;99.90;;;;;;5095677;28;20710;-75
2022/01/20 05:52:03;;;;;;;9.67;3.30;;;-6.10;99.90;;;;;;5095793;28;20398;-74
2022/01/20 05:54:29;;;;;;;6.33;3.00;;;-6.10;99.90;;;;;;5096006;28;20462;-74
2022/01/20 05:56:55;;;;;;;4.83;2.53;;;-6.00;99.90;;;;;;5096156;28;20442;-75
2022/01/20 05:59:20;;;;;;;19.53;4.17;;;-6.10;99.90;;;;;;5095759;28;20780;-75
2022/01/20 06:01:53;;;;;;;12.80;3.67;;;-6.30;99.90;;;;;;5095442;28;20523;-74
2022/01/20 06:04:19;;;;;;;11.00;3.43;;;-6.30;99.90;;;;;;5095574;28;20194;-77
2022/01/20 06:06:45;;;;;;;7.93;2.80;;;-6.70;99.90;;;;;;5095554;28;20387;-75
2022/01/20 06:09:11;;;;;;;10.87;3.67;;;-6.20;99.90;;;;;;5094426;28;20535;-74
2022/01/20 06:11:37;;;;;;;7.57;3.23;;;-6.10;99.90;;;;;;5095895;28;20448;-74
2022/01/20 06:14:04;;;;;;;17.43;3.37;;;-6.20;99.90;;;;;;5099596;28;20400;-74
2022/01/20 06:16:30;;;;;;;8.87;3.50;;;-6.40;99.90;;;;;;5098184;28;20414;-76
2022/01/20 06:18:56;;;;;;;12.10;3.57;;;-6.40;99.90;;;;;;5098429;28;20420;-73
2022/01/20 06:21:22;;;;;;;4.97;2.77;;;-6.20;99.90;;;;;;5099423;28;20400;-80
2022/01/20 06:23:49;;;;;;;15.80;4.67;;;-5.70;99.90;;;;;;5099372;28;20198;-76
2022/01/20 06:26:15;;;;;;;27.13;4.97;;;-5.60;99.90;;;;;;5099208;28;20405;-76
2022/01/20 06:28:41;;;;;;;20.93;6.23;;;-6.30;99.90;;;;;;5099377;28;20426;-76
2022/01/20 06:31:08;;;;;;;19.60;4.63;;;-5.60;99.90;;;;;;5097960;28;20835;-74
2022/01/20 06:33:35;;;;;;;16.17;3.73;;;-6.10;99.90;;;;;;5099327;28;20190;-77
2022/01/20 06:36:01;;;;;;;14.57;3.63;;;-6.00;99.90;;;;;;5099130;28;20461;-76
2022/01/20 06:38:27;;;;;;;13.83;3.93;;;-5.80;99.90;;;;;;5099047;28;20782;-76
2022/01/20 06:40:53;;;;;;;14.33;3.70;;;-5.70;99.90;;;;;;5097981;28;20403;-74
2022/01/20 06:43:19;;;;;;;15.97;3.43;;;-5.90;99.90;;;;;;5098712;28;20411;-75
2022/01/20 06:45:45;;;;;;;15.53;2.70;;;-8.50;99.90;;;;;;5098970;28;20577;-75
2022/01/20 06:48:11;;;;;;;13.27;2.70;;;-6.00;99.90;;;;;;5089485;28;20424;-75
2022/01/20 06:50:37;;;;;;;7.90;2.07;;;-6.00;99.90;;;;;;5078391;28;20174;-75
2022/01/20 06:53:03;;;;;;;13.60;2.90;;;-5.80;99.90;;;;;;5078513;28;20509;-74
2022/01/20 06:55:28;;;;;;;15.37;2.70;;;-6.20;99.90;;;;;;5077452;28;20184;-78
2022/01/20 06:57:54;;;;;;;14.20;4.57;;;-5.90;99.90;;;;;;5068912;28;20471;-74
2022/01/20 07:00:22;;;;;;;6.20;3.53;;;-6.00;99.90;;;;;;5070956;28;20187;-73
2022/01/20 07:02:50;;;;;;;28.60;5.93;;;-6.00;99.90;;;;;;5078042;28;20233;-75
2022/01/20 07:05:18;;;;;;;6.07;1.97;;;-6.20;99.90;;;;;;5077097;28;20488;-76
2022/01/20 07:07:44;;;;;;;10.73;3.97;;;-6.30;99.90;;;;;;5068987;28;20499;-76
2022/01/20 07:10:12;;;;;;;11.43;3.63;;;-6.20;99.90;;;;;;5084138;28;20419;-78
2022/01/20 07:12:41;;;;;;;10.60;2.87;;;-5.90;99.90;;;;;;5075288;28;20814;-77
2022/01/20 07:15:08;;;;;;;13.20;3.03;;;-6.00;99.90;;;;;;5078827;28;20727;-75
2022/01/20 07:17:34;;;;;;;11.93;3.07;;;-5.90;99.90;;;;;;5082792;28;20850;-79
2022/01/20 07:20:00;;;;;;;8.90;2.23;;;-5.60;99.90;;;;;;5083759;28;20428;-76
2022/01/20 07:22:25;;;;;;;14.90;4.33;;;-4.00;99.90;;;;;;5078848;28;20409;-79
2022/01/20 07:24:51;;;;;;;5.53;1.50;;;-5.70;99.90;;;;;;5078174;28;20265;-75
2022/01/20 07:27:17;;;;;;;6.80;1.67;;;-5.90;99.90;;;;;;5076216;28;20575;-77
2022/01/20 07:29:42;;;;;;;5.83;1.90;;;-6.20;99.90;;;;;;5086317;28;20171;-76
2022/01/20 07:32:08;;;;;;;9.00;1.97;;;-6.10;99.90;;;;;;5093871;28;20176;-76
2022/01/20 07:34:35;;;;;;;14.13;2.53;;;-4.20;99.90;;;;;;5077797;28;20253;-75
2022/01/20 07:37:02;;;;;;;6.23;2.70;;;-6.40;99.90;;;;;;5076849;28;20194;-79
2022/01/20 07:39:28;;;;;;;9.27;2.03;;;-3.70;99.90;;;;;;5089517;28;20456;-81
2022/01/20 07:41:54;;;;;;;7.97;2.20;;;-5.90;99.90;;;;;;5095679;28;20416;-77
2022/01/20 07:44:21;;;;;;;22.53;2.97;;;-4.30;99.90;;;;;;5083849;28;20937;-77
2022/01/20 07:46:47;;;;;;;16.57;3.03;;;-6.30;99.90;;;;;;5093398;28;20239;-79
2022/01/20 07:49:14;;;;;;;10.07;2.07;;;-6.40;99.90;;;;;;5096930;28;20387;-76
2022/01/20 07:51:40;;;;;;;12.40;1.97;;;-5.60;99.90;;;;;;5087360;28;20414;-77
2022/01/20 07:54:06;;;;;;;11.20;2.70;;;-6.30;99.90;;;;;;5089573;28;20494;-79
2022/01/20 07:56:32;;;;;;;15.93;4.37;;;-2.90;99.90;;;;;;5075298;28;20492;-75
2022/01/20 07:58:57;;;;;;;14.37;2.40;;;-6.60;99.90;;;;;;5081592;28;20180;-78
2022/01/20 08:01:27;;;;;;;9.30;2.63;;;-6.60;99.90;;;;;;5075042;28;20663;-75
2022/01/20 08:03:54;;;;;;;10.13;2.57;;;-6.20;99.90;;;;;;5077776;28;20193;-74
2022/01/20 08:06:20;;;;;;;10.43;2.93;;;-5.10;99.90;;;;;;5095174;28;20595;-75
2022/01/20 08:08:49;;;;;;;11.73;2.60;;;-7.20;99.90;;;;;;5079654;28;20407;-75
2022/01/20 08:11:15;;;;;;;8.27;2.33;;;-7.30;99.90;;;;;;5076156;28;20415;-77
2022/01/20 08:13:41;;;;;;;17.13;3.30;;;-5.00;99.90;;;;;;5092474;28;20396;-81
2022/01/20 08:16:07;;;;;;;11.60;2.33;;;-4.30;99.90;;;;;;5095735;28;20711;-75
2022/01/20 08:18:32;;;;;;;9.43;2.77;;;-6.30;99.90;;;;;;5076463;28;20209;-75
2022/01/20 08:20:58;;;;;;;10.10;3.30;;;-6.50;99.90;;;;;;5074664;28;20172;-77
2022/01/20 08:23:24;;;;;;;13.80;2.77;;;-6.50;99.90;;;;;;5074766;28;20602;-78
2022/01/20 08:25:50;;;;;;;18.37;4.93;;;-5.40;99.90;;;;;;5087893;28;20184;-77
2022/01/20 08:28:18;;;;;;;17.93;4.50;;;-6.10;99.90;;;;;;5095670;28;20175;-83
2022/01/20 08:30:43;;;;;;;17.27;3.70;;;-6.30;99.90;;;;;;5095177;28;20186;-79
2022/01/20 08:33:09;;;;;;;20.50;4.47;;;-6.30;99.90;;;;;;5096259;28;20402;-78
2022/01/20 08:35:35;;;;;;;13.90;2.93;;;-3.40;99.90;;;;;;5094162;28;20178;-76
2022/01/20 08:38:03;;;;;;;14.83;2.87;;;-4.10;99.90;;;;;;5088366;28;20202;-75
2022/01/20 08:40:29;;;;;;;17.83;3.10;;;-4.10;99.90;;;;;;5075415;28;20226;-74
2022/01/20 08:42:56;;;;;;;11.57;3.20;;;-5.10;99.90;;;;;;5075152;28;20496;-78
2022/01/20 08:45:26;;;;;;;13.73;3.83;;;-6.20;99.90;;;;;;5075653;28;20453;-74
2022/01/20 08:47:54;;;;;;;19.70;4.47;;;-6.10;99.90;;;;;;5088620;28;20410;-76
2022/01/20 08:50:21;;;;;;;17.70;4.07;;;-5.80;99.90;;;;;;5095663;28;20397;-75
2022/01/20 08:52:47;;;;;;;17.57;4.67;;;-6.40;99.90;;;;;;5095278;28;20489;-78
2022/01/20 08:55:14;;;;;;;14.03;3.20;;;-4.70;99.90;;;;;;5095714;28;20894;-77
2022/01/20 08:57:39;;;;;;;14.87;4.83;;;-7.00;99.90;;;;;;5095403;28;20483;-79
2022/01/20 09:00:08;;;;;;;10.63;3.50;;;-6.50;99.90;;;;;;5094708;28;20401;-74
2022/01/20 09:02:34;;;;;;;20.83;4.50;;;-6.70;99.90;;;;;;5092518;28;20600;-74
2022/01/20 09:05:01;;;;;;;11.17;3.43;;;-6.70;99.90;;;;;;5081451;28;20442;-78
2022/01/20 09:07:29;;;;;;;11.70;4.07;;;-8.10;99.90;;;;;;5074743;28;20762;-73
2022/01/20 09:09:59;;;;;;;9.93;3.47;;;-7.10;99.90;;;;;;5074643;28;20486;-74
2022/01/20 09:17:44;;;;;;;12.83;6.37;;;-6.20;99.90;;;;;;5074166;28;20445;-74
2022/01/20 09:20:11;;;;;;;16.83;4.90;;;-6.50;99.90;;;;;;5074166;28;20410;-75
2022/01/20 09:22:37;;;;;;;23.90;4.87;;;-7.10;99.90;;;;;;5074098;28;20204;-74
2022/01/20 09:25:05;;;;;;;21.93;3.37;;;-6.70;99.90;;;;;;5074026;28;20443;-75
2022/01/20 09:27:32;;;;;;;17.20;3.87;;;-6.30;99.90;;;;;;5092744;28;20721;-73
2022/01/20 09:30:01;;;;;;;18.03;3.57;;;-6.00;99.90;;;;;;5094157;28;20766;-75
2022/01/20 09:32:29;;;;;;;17.07;4.13;;;-6.40;99.90;;;;;;5093853;28;20421;-72
2022/01/20 09:34:56;;;;;;;26.47;4.47;;;-5.90;99.90;;;;;;5093637;28;20395;-75
2022/01/20 09:37:25;;;;;;;29.27;8.20;;;-6.00;99.90;;;;;;5093932;28;20403;-79
2022/01/20 09:39:51;;;;;;;15.83;5.73;;;-6.20;99.90;;;;;;5094823;28;20513;-73
2022/01/20 09:42:18;;;;;;;8.93;3.67;;;-6.30;99.90;;;;;;5094669;28;20868;-76
2022/01/20 09:44:46;;;;;;;9.87;3.23;;;-6.40;99.90;;;;;;5094701;28;20811;-74
2022/01/20 09:47:14;;;;;;;15.97;3.63;;;-6.80;99.90;;;;;;5099371;28;20489;-74
2022/01/20 09:49:39;;;;;;;21.83;4.20;;;-6.40;99.90;;;;;;5101766;28;20401;-73
2022/01/20 09:52:05;;;;;;;23.13;4.10;;;-6.90;99.90;;;;;;5101830;28;20826;-75
2022/01/20 09:54:32;;;;;;;17.87;2.87;;;-6.60;99.90;;;;;;5101505;28;20214;-75
2022/01/20 09:56:59;;;;;;;24.63;4.37;;;-6.80;99.90;;;;;;5101286;28;20176;-75
2022/01/20 09:59:26;;;;;;;33.83;5.87;;;-7.00;99.90;;;;;;5100766;28;20399;-75
2022/01/20 10:01:58;;;;;;;37.20;6.50;;;-7.40;99.90;;;;;;5081638;28;20894;-79
2022/01/20 10:04:30;;;;;;;28.70;4.90;;;-4.70;99.90;;;;;;5081351;28;20940;-76
2022/01/20 10:07:06;;;;;;;47.90;5.73;;;-5.10;99.90;;;;;;5080928;28;20292;-76
2022/01/20 10:09:38;;;;;;;23.73;4.87;;;-7.40;99.90;;;;;;5081988;28;20851;-75
2022/01/20 10:12:05;;;;;;;36.83;6.17;;;-7.20;99.90;;;;;;5081806;28;20175;-78
2022/01/20 10:14:58;;;;;;;32.53;5.40;;;-7.40;99.90;;;;;;5097390;28;20184;-73
2022/01/20 10:17:29;;;;;;;23.73;3.53;;;-6.60;99.90;;;;;;5101536;28;20589;-74
2022/01/20 10:20:04;;;;;;;34.47;6.53;;;-7.30;99.90;;;;;;5101467;28;20391;-72
2022/01/20 10:22:31;;;;;;;16.07;3.77;;;-7.70;99.90;;;;;;5102009;28;20157;-73
2022/01/20 10:25:17;;;;;;;14.67;3.10;;;-7.40;99.90;;;;;;5102006;28;20198;-76
2022/01/20 10:27:46;;;;;;;25.93;4.63;;;-8.10;99.90;;;;;;5102226;28;20248;-72
2022/01/20 10:30:12;;;;;;;26.27;4.30;;;-8.00;99.90;;;;;;5101683;28;20143;-72
2022/01/20 10:32:46;;;;;;;13.07;4.00;;;-7.50;99.90;;;;;;5102070;28;20402;-72
2022/01/20 10:35:13;;;;;;;48.10;6.97;;;-7.80;99.90;;;;;;5101961;28;20163;-74
2022/01/20 10:37:51;;;;;;;27.70;4.90;;;-7.50;99.90;;;;;;5100684;28;20413;-72
2022/01/20 10:40:17;;;;;;;40.90;6.07;;;-7.60;99.90;;;;;;5101047;28;20505;-74
2022/01/20 10:42:46;;;;;;;28.30;4.70;;;-7.10;99.90;;;;;;5101811;28;20506;-73
2022/01/20 10:45:29;;;;;;;22.00;4.13;;;-6.60;99.90;;;;;;5101485;28;20338;-72
2022/01/20 10:47:59;;;;;;;15.57;2.90;;;-6.10;99.90;;;;;;5100544;28;20426;-73
2022/01/20 10:50:28;;;;;;;13.13;3.23;;;-6.30;99.90;;;;;;5100427;28;20453;-74
2022/01/20 10:52:55;;;;;;;27.43;3.37;;;-6.30;99.90;;;;;;5100997;28;20446;-73
2022/01/20 10:55:34;;;;;;;11.53;2.70;;;-4.20;99.90;;;;;;5101469;28;20171;-73
2022/01/20 10:58:23;;;;;;;24.50;4.27;;;-6.80;99.90;;;;;;5099121;28;20697;-74
2022/01/20 11:00:51;;;;;;;13.30;3.23;;;-6.70;99.90;;;;;;5097675;28;20406;-74
2022/01/20 11:03:18;;;;;;;12.93;2.63;;;-6.60;99.90;;;;;;5101057;28;20791;-74
2022/01/20 11:05:49;;;;;;;19.00;3.87;;;-7.00;99.90;;;;;;5096917;28;20461;-73
2022/01/20 11:08:15;;;;;;;6.20;2.57;;;-7.00;99.90;;;;;;5097854;28;20422;-73
2022/01/20 11:10:43;;;;;;;8.00;2.27;;;-7.40;99.90;;;;;;5097796;28;20893;-77
2022/01/20 11:13:13;;;;;;;10.87;2.60;;;-8.20;99.90;;;;;;5097853;28;20836;-73
2022/01/20 11:15:40;;;;;;;4.53;2.00;;;-8.20;99.90;;;;;;5096850;28;20435;-74
2022/01/20 11:18:08;;;;;;;5.73;2.60;;;-8.00;99.90;;;;;;5098013;28;20616;-74
2022/01/20 11:20:50;;;;;;;10.10;2.73;;;-8.30;99.90;;;;;;5095873;28;20412;-73
2022/01/20 11:23:16;;;;;;;10.33;2.83;;;-8.30;99.90;;;;;;5097993;28;20408;-74
2022/01/20 11:25:44;;;;;;;8.53;2.70;;;-6.90;99.90;;;;;;5097094;28;20462;-79
2022/01/20 11:28:21;;;;;;;12.57;2.33;;;-6.30;99.90;;;;;;5098133;28;20261;-73
2022/01/20 11:31:05;;;;;;;6.13;2.77;;;-6.30;99.90;;;;;;5097972;28;20443;-83
2022/01/20 11:33:43;;;;;;;10.90;2.83;;;-5.80;99.90;;;;;;5097187;28;20422;-74
2022/01/20 11:36:21;;;;;;;10.97;2.73;;;-6.30;99.90;;;;;;5095274;28;20494;-76
2022/01/20 11:38:49;;;;;;;9.20;2.27;;;-6.90;99.90;;;;;;5076808;28;20510;-74
2022/01/20 11:41:17;;;;;;;21.37;3.67;;;-7.30;99.90;;;;;;5078005;28;20411;-73
2022/01/20 11:43:48;;;;;;;7.67;1.60;;;-7.20;99.90;;;;;;5077544;28;20423;-74
2022/01/20 11:46:20;;;;;;;5.80;1.70;;;-7.50;99.90;;;;;;5075556;28;20774;-74
2022/01/20 11:48:58;;;;;;;9.53;2.27;;;-6.70;99.90;;;;;;5076984;28;20213;-74
2022/01/20 11:51:29;;;;;;;6.00;2.33;;;-7.70;99.90;;;;;;5076222;28;20448;-73
2022/01/20 11:54:04;;;;;;;6.03;2.97;;;-7.50;99.90;;;;;;5077396;28;20405;-77
2022/01/20 11:56:33;;;;;;;12.03;2.43;;;-6.60;99.90;;;;;;5077292;28;20390;-73
2022/01/20 11:58:59;;;;;;;8.77;2.30;;;-6.60;99.90;;;;;;5077039;28;20439;-73
2022/01/20 12:01:27;;;;;;;7.47;1.93;;;-6.30;99.90;;;;;;5076941;28;20726;-77
2022/01/20 12:03:54;;;;;;;6.70;2.77;;;-6.30;99.90;;;;;;5076483;28;20184;-73
2022/01/20 12:06:24;;;;;;;6.47;1.87;;;-7.00;99.90;;;;;;5080639;28;20408;-73
2022/01/20 12:08:55;;;;;;;7.63;3.37;;;-5.10;99.90;;;;;;5095647;28;20732;-74
2022/01/20 12:11:22;;;;;;;7.23;1.57;;;-3.90;99.90;;;;;;5096416;28;20456;-74
2022/01/20 12:13:55;;;;;;;12.27;1.97;;;-5.40;99.90;;;;;;5096967;28;20397;-73
2022/01/20 12:16:23;;;;;;;7.63;2.40;;;-6.20;99.90;;;;;;5096806;28;20443;-75
2022/01/20 12:18:50;;;;;;;3.07;1.70;;;-5.80;99.90;;;;;;5096686;28;20425;-88
2022/01/20 12:21:16;;;;;;;10.70;2.53;;;-6.00;99.90;;;;;;5097393;28;20383;-79
2022/01/20 12:23:44;;;;;;;18.87;3.50;;;-5.90;99.90;;;;;;5096142;28;20424;-78
2022/01/20 12:26:09;;;;;;;12.73;3.50;;;-3.40;99.90;;;;;;5097545;28;20203;-76
2022/01/20 12:28:35;;;;;;;9.30;2.63;;;-5.60;99.90;;;;;;5097030;28;20394;-83
2022/01/20 12:31:03;;;;;;;12.00;4.23;;;-5.70;99.90;;;;;;5097123;28;20159;-91
2022/01/20 12:33:34;;;;;;;3.87;1.83;;;-5.90;99.90;;;;;;5096722;28;20192;-89
2022/01/20 12:36:03;;;;;;;10.97;2.43;;;-7.60;99.90;;;;;;5096435;28;20410;-90
2022/01/20 12:38:29;;;;;;;7.80;2.07;;;-7.30;99.90;;;;;;5096521;28;20876;-87
2022/01/20 12:41:17;;;;;;;6.60;1.50;;;-7.30;99.90;;;;;;5097422;28;20406;-77
2022/01/20 12:44:04;;;;;;;11.03;2.40;;;-7.60;99.90;;;;;;5096636;28;20208;-91
2022/01/20 12:46:42;;;;;;;2.57;1.30;;;-7.20;99.90;;;;;;5096393;28;20410;-84
2022/01/20 12:49:14;;;;;;;3.67;1.20;;;-6.10;99.90;;;;;;5096148;28;20466;-84
2022/01/20 12:51:50;;;;;;;7.07;1.97;;;-7.30;99.90;;;;;;5097110;28;20841;-77
2022/01/20 12:54:30;;;;;;;2.63;1.33;;;-7.20;99.90;;;;;;5096698;28;20425;-80
2022/01/20 12:57:02;;;;;;;13.33;2.50;;;-7.40;99.90;;;;;;5096402;28;20414;-84
2022/01/20 12:59:31;;;;;;;7.47;3.20;;;-6.90;99.90;;;;;;5097367;28;20410;-88
2022/01/20 13:02:00;;;;;;;10.83;2.90;;;-6.70;99.90;;;;;;5096911;28;20447;-86
2022/01/20 13:04:29;;;;;;;17.50;3.90;;;-6.60;99.90;;;;;;5095357;28;20459;-78
2022/01/20 13:06:58;;;;;;;11.13;2.97;;;-6.40;99.90;;;;;;5092173;28;20469;-75
2022/01/20 13:09:36;;;;;;;11.33;3.50;;;-6.20;99.90;;;;;;5070608;28;20413;-77
2022/01/20 13:12:02;;;;;;;6.70;1.60;;;-6.10;99.90;;;;;;5091513;28;20478;-86
2022/01/20 13:14:44;;;;;;;7.03;2.47;;;-5.90;99.90;;;;;;5076535;28;20831;-77
2022/01/20 13:17:32;;;;;;;16.47;2.47;;;-5.90;99.90;;;;;;5074790;28;20493;-75
2022/01/20 13:20:00;;;;;;;7.70;1.90;;;-4.40;99.90;;;;;;5094910;28;20508;-74
2022/01/20 13:22:40;;;;;;;8.20;2.13;;;-5.30;99.90;;;;;;5090391;28;20856;-79
2022/01/20 13:25:07;;;;;;;8.77;1.97;;;-5.50;99.90;;;;;;5089029;28;20454;-76
2022/01/20 13:27:33;;;;;;;12.30;2.40;;;-5.50;99.90;;;;;;5074818;28;20401;-73
2022/01/20 13:29:59;;;;;;;6.63;2.00;;;-5.60;99.90;;;;;;5092839;28;20865;-73
2022/01/20 13:32:25;;;;;;;11.17;2.13;;;-5.70;99.90;;;;;;5094428;28;20451;-73
2022/01/20 13:34:56;;;;;;;8.27;1.80;;;-5.90;99.90;;;;;;5087668;28;20410;-73
2022/01/20 13:37:22;;;;;;;8.33;2.40;;;-6.90;99.90;;;;;;5086415;28;20268;-73
2022/01/20 13:39:55;;;;;;;26.73;6.13;;;-7.20;99.90;;;;;;5085297;28;20454;-75
2022/01/20 13:45:13;;;;;;;6.80;3.10;;;-7.00;99.90;;;;;;5088778;28;20918;-73
2022/01/20 13:47:50;;;;;;;10.27;2.67;;;-7.10;99.90;;;;;;5083601;28;20399;-73
2022/01/20 13:50:38;;;;;;;17.83;3.10;;;-7.90;99.90;;;;;;5087719;28;20147;-75
2022/01/20 13:53:16;;;;;;;13.77;3.00;;;-7.90;99.90;;;;;;5084782;28;20419;-74
2022/01/20 13:55:44;;;;;;;8.50;2.03;;;-8.30;99.90;;;;;;5089754;28;20169;-73
2022/01/20 13:58:24;;;;;;;17.47;3.30;;;-6.20;99.90;;;;;;5095119;28;20869;-74
2022/01/20 14:00:51;;;;;;;11.63;2.60;;;-7.40;99.90;;;;;;5093012;28;20185;-73
2022/01/20 14:03:17;;;;;;;7.47;2.03;;;-7.60;99.90;;;;;;5094600;28;20166;-75
2022/01/20 14:05:44;;;;;;;10.80;2.37;;;-7.10;99.90;;;;;;5093519;28;20237;-72